Gruetli, Tennessee
Current Conditions -  °F | °C
As of 8:35 AM on Monday 26 Jan 2015 (Local Time) from KBGF Reporting Station
Overcast Overcast  
Wind Chill: 20°   Ceiling: 800
Heat Index: 30°   Visibility: 10mi
Dew Point: 30°   Wind: 13mph
Humidity: 100%   Direction: 300°WNW
Pressure: 29.94"   Gusts: NA
Location:  35.361°N, 85.7446°W
Report Text: KBGF 261435Z AUTO 30011KT 10SM OVC008 M01/M01 A2994 RMK
Loading
Personal Weather Stations






























Interactive Weather Map New forecast layout! Learn more

10-Day Weather Forecast

Advertisements
Track Severe Weather on mobile